createdAt,value
2023-03-20T00:00:35.788Z,2.10
2023-03-20T00:03:04.992Z,2.38
2023-03-20T00:05:33.829Z,2.22
2023-03-20T00:08:04.102Z,2.15
2023-03-20T00:10:37.594Z,2.03
2023-03-20T00:13:07.333Z,2.22
2023-03-20T00:15:38.589Z,2.40
2023-03-20T00:18:14.000Z,2.50
2023-03-20T00:20:42.712Z,2.22
2023-03-20T00:23:12.926Z,3.17
2023-03-20T00:25:42.203Z,2.80
2023-03-20T00:28:31.152Z,2.60
2023-03-20T00:31:00.014Z,2.70
2023-03-20T00:33:28.753Z,2.50
2023-03-20T00:35:59.003Z,2.58
2023-03-20T00:38:29.022Z,2.75
2023-03-20T00:40:57.672Z,2.70
2023-03-20T00:43:26.634Z,3.05
2023-03-20T00:45:55.402Z,2.83
2023-03-20T00:48:24.129Z,2.47
2023-03-20T00:50:52.792Z,2.85
2023-03-20T00:53:21.456Z,2.85
2023-03-20T00:55:51.578Z,2.33
2023-03-20T00:58:20.244Z,2.90
2023-03-20T01:00:48.943Z,2.90
2023-03-20T01:03:18.826Z,3.13
2023-03-20T01:05:49.962Z,2.70
2023-03-20T01:08:19.972Z,2.58
2023-03-20T01:10:49.364Z,2.88
2023-03-20T01:13:22.464Z,2.80
2023-03-20T01:15:52.700Z,2.40
2023-03-20T01:18:22.290Z,2.40
2023-03-20T01:20:53.041Z,3.13
2023-03-20T01:23:23.031Z,2.33
2023-03-20T01:25:52.315Z,2.70
2023-03-20T01:28:24.692Z,2.40
2023-03-20T01:30:53.541Z,2.70
2023-03-20T01:33:23.954Z,2.40
2023-03-20T01:35:57.533Z,2.42
2023-03-20T01:38:27.630Z,2.38
2023-03-20T01:41:00.450Z,2.65
2023-03-20T01:43:34.047Z,2.47
2023-03-20T01:46:04.733Z,2.55
2023-03-20T01:48:38.940Z,2.30
2023-03-20T01:51:08.139Z,2.70
2023-03-20T01:53:36.798Z,2.70
2023-03-20T01:56:05.630Z,2.95
2023-03-20T01:58:45.856Z,2.50
2023-03-20T02:01:16.063Z,2.05
2023-03-20T02:03:47.759Z,2.10
2023-03-20T02:06:29.391Z,2.10
2023-03-20T02:09:16.843Z,2.30
2023-03-20T02:11:48.354Z,2.78
2023-03-20T02:14:22.090Z,2.20
2023-03-20T02:16:56.139Z,2.35
2023-03-20T02:19:56.908Z,2.22
2023-03-20T02:22:41.228Z,2.20
2023-03-20T02:25:28.363Z,1.92
2023-03-20T02:28:10.339Z,2.05
2023-03-20T02:30:48.163Z,2.00
2023-03-20T02:33:45.975Z,2.17
2023-03-20T02:36:33.354Z,2.17
2023-03-20T02:39:18.284Z,2.72
2023-03-20T02:41:51.767Z,2.15
2023-03-20T02:44:23.526Z,2.67
2023-03-20T02:46:58.837Z,2.65
2023-03-20T02:49:36.605Z,2.53
2023-03-20T02:52:07.382Z,2.78
2023-03-20T02:54:41.233Z,3.20
2023-03-20T02:57:12.229Z,2.50
2023-03-20T02:59:43.844Z,2.60
2023-03-20T03:02:15.840Z,2.38
2023-03-20T03:04:47.071Z,2.83
2023-03-20T03:07:21.377Z,2.92
2023-03-20T03:09:55.304Z,2.85
2023-03-20T03:12:25.722Z,2.67
2023-03-20T03:14:55.642Z,3.30
2023-03-20T03:17:26.750Z,2.75
2023-03-20T03:19:57.864Z,2.53
2023-03-20T03:22:27.024Z,3.28
2023-03-20T03:24:57.346Z,3.00
2023-03-20T03:27:27.970Z,3.40
2023-03-20T03:29:58.075Z,3.40
2023-03-20T03:32:29.388Z,3.47
2023-03-20T03:34:58.710Z,3.25
2023-03-20T03:37:36.921Z,3.08
2023-03-20T03:40:11.880Z,3.25
2023-03-20T03:42:41.841Z,3.63
2023-03-20T03:45:12.073Z,3.78
2023-03-20T03:47:43.447Z,3.50
2023-03-20T03:50:14.718Z,3.40
2023-03-20T03:52:44.830Z,2.90
2023-03-20T03:55:16.602Z,3.30
2023-03-20T03:57:59.919Z,3.03
2023-03-20T04:00:29.285Z,2.78
2023-03-20T04:02:59.393Z,2.88
2023-03-20T04:05:31.535Z,2.85
2023-03-20T04:08:01.334Z,2.83
2023-03-20T04:10:31.509Z,2.47
2023-03-20T04:13:00.402Z,2.33
2023-03-20T04:15:29.244Z,2.60
2023-03-20T04:17:57.974Z,2.08
2023-03-20T04:20:26.855Z,2.10
2023-03-20T04:22:56.110Z,1.98
2023-03-20T04:25:26.091Z,2.10
2023-03-20T04:27:58.435Z,1.77
2023-03-20T04:30:44.291Z,1.60
2023-03-20T04:33:33.393Z,1.83
2023-03-20T04:36:08.009Z,1.75
2023-03-20T04:38:36.714Z,1.92
2023-03-20T04:41:05.595Z,1.77
2023-03-20T04:43:36.440Z,1.67
2023-03-20T04:46:06.358Z,1.77
2023-03-20T04:48:35.093Z,1.80
2023-03-20T04:51:04.306Z,1.65
2023-03-20T04:54:01.971Z,1.85
2023-03-20T04:56:31.023Z,1.80
2023-03-20T04:59:14.505Z,1.60
2023-03-20T05:01:43.204Z,1.98
2023-03-20T05:04:12.045Z,2.00
2023-03-20T05:06:40.866Z,1.98
2023-03-20T05:09:09.607Z,2.30
2023-03-20T05:11:39.246Z,2.28
2023-03-20T05:14:07.903Z,2.78
2023-03-20T05:17:04.496Z,2.55
2023-03-20T05:19:55.879Z,2.38
2023-03-20T05:22:44.693Z,2.80
2023-03-20T05:25:36.428Z,2.50
2023-03-20T05:28:25.538Z,2.72
2023-03-20T05:31:14.555Z,2.83
2023-03-20T05:34:02.975Z,2.90
2023-03-20T05:36:44.153Z,3.13
2023-03-20T05:39:28.829Z,2.92
2023-03-20T05:42:16.228Z,3.20
2023-03-20T05:44:57.642Z,2.63
2023-03-20T05:47:44.701Z,3.40
2023-03-20T05:50:33.235Z,3.50
2023-03-20T05:53:07.804Z,3.55
2023-03-20T05:55:52.024Z,3.20
2023-03-20T05:58:26.684Z,3.47
2023-03-20T06:01:16.313Z,3.60
2023-03-20T06:04:14.036Z,4.05
2023-03-20T06:07:07.509Z,4.35
2023-03-20T06:09:36.994Z,4.43
2023-03-20T06:12:10.620Z,4.47
2023-03-20T06:14:39.562Z,4.80
2023-03-20T06:17:10.252Z,5.20
2023-03-20T06:19:39.292Z,5.50
2023-03-20T06:22:09.662Z,5.60
2023-03-20T06:24:38.408Z,5.68
2023-03-20T06:27:07.958Z,5.57
2023-03-20T06:29:36.767Z,6.32
2023-03-20T06:32:22.551Z,6.00
2023-03-20T06:34:53.586Z,6.05
2023-03-20T06:37:23.763Z,6.43
2023-03-20T06:39:54.648Z,6.70
2023-03-20T06:42:23.513Z,7.00
2023-03-20T06:44:52.500Z,7.10
2023-03-20T06:47:59.912Z,6.60
2023-03-20T06:50:28.845Z,6.53
2023-03-20T06:53:01.215Z,7.10
2023-03-20T06:55:41.882Z,7.13
2023-03-20T06:58:10.693Z,7.22
2023-03-20T07:00:40.062Z,6.95
2023-03-20T07:03:10.209Z,7.45
2023-03-20T07:05:40.301Z,7.68
2023-03-20T07:08:12.663Z,8.18
2023-03-20T07:10:41.337Z,7.72
2023-03-20T07:13:10.447Z,7.43
2023-03-20T07:15:53.897Z,7.68
2023-03-20T07:18:30.577Z,8.20
2023-03-20T07:21:01.825Z,8.00
2023-03-20T07:23:32.275Z,8.32
2023-03-20T07:26:01.264Z,7.60
2023-03-20T07:28:30.186Z,6.97
2023-03-20T07:31:14.729Z,7.57
2023-03-20T07:33:43.782Z,7.90
2023-03-20T07:36:12.925Z,7.60
2023-03-20T07:38:43.810Z,7.85
2023-03-20T07:41:13.112Z,7.07
2023-03-20T07:43:46.304Z,8.07
2023-03-20T07:46:34.957Z,7.65
2023-03-20T07:49:04.061Z,8.32
2023-03-20T07:51:32.767Z,8.35
2023-03-20T07:54:03.195Z,8.65
2023-03-20T07:56:31.876Z,8.50
2023-03-20T07:59:00.555Z,8.50
2023-03-20T08:01:29.386Z,8.38
2023-03-20T08:03:58.209Z,8.13
2023-03-20T08:06:27.162Z,8.38
2023-03-20T08:08:56.229Z,7.97
2023-03-20T08:11:26.321Z,8.45
2023-03-20T08:13:54.945Z,8.20
2023-03-20T08:16:23.666Z,8.93
2023-03-20T08:18:53.239Z,9.85
2023-03-20T08:21:22.202Z,9.98
2023-03-20T08:23:50.942Z,9.55
2023-03-20T08:26:19.678Z,10.05
2023-03-20T08:28:50.933Z,10.05
2023-03-20T08:31:20.197Z,11.90
2023-03-20T08:33:49.083Z,9.55
2023-03-20T08:36:20.451Z,10.27
2023-03-20T08:38:49.713Z,10.48
2023-03-20T08:41:19.027Z,10.60
2023-03-20T08:43:47.786Z,10.70
2023-03-20T08:46:18.113Z,10.98
2023-03-20T08:48:46.876Z,10.93
2023-03-20T08:51:16.207Z,11.02
2023-03-20T08:53:45.130Z,11.00
2023-03-20T08:56:13.833Z,9.88
2023-03-20T08:58:42.498Z,9.75
2023-03-20T09:01:15.532Z,9.68
2023-03-20T09:03:45.787Z,9.77
2023-03-20T09:06:14.479Z,9.63
2023-03-20T09:08:43.234Z,8.68
2023-03-20T09:11:11.856Z,9.00
2023-03-20T09:13:40.571Z,9.20
2023-03-20T09:16:09.754Z,8.30
2023-03-20T09:18:38.733Z,8.57
2023-03-20T09:21:09.921Z,8.20
2023-03-20T09:23:38.736Z,8.25
2023-03-20T09:26:07.824Z,8.50
2023-03-20T09:28:36.637Z,8.57
2023-03-20T09:31:06.496Z,9.13
2023-03-20T09:33:35.251Z,8.73
2023-03-20T09:36:04.273Z,8.90
2023-03-20T09:38:34.655Z,9.32
2023-03-20T09:41:04.127Z,9.73
2023-03-20T09:43:40.233Z,8.90
2023-03-20T09:46:14.488Z,9.93
2023-03-20T09:48:46.169Z,10.15
2023-03-20T09:51:20.973Z,9.98
2023-03-20T09:53:53.262Z,9.57
2023-03-20T09:56:25.097Z,9.43
2023-03-20T09:58:56.162Z,9.93
2023-03-20T10:01:26.562Z,9.07
2023-03-20T10:03:57.637Z,9.85
2023-03-20T10:06:26.396Z,9.48
2023-03-20T10:08:58.256Z,10.00
2023-03-20T10:11:36.866Z,9.43
2023-03-20T10:14:13.938Z,10.02
2023-03-20T10:16:50.744Z,9.77
2023-03-20T10:19:23.193Z,10.35
2023-03-20T10:21:54.368Z,10.57
2023-03-20T10:24:26.989Z,10.43
2023-03-20T10:26:57.531Z,10.27
2023-03-20T10:29:32.027Z,9.55
2023-03-20T10:32:05.531Z,10.30
2023-03-20T10:34:42.902Z,10.35
2023-03-20T10:37:17.565Z,10.35
2023-03-20T10:39:53.108Z,9.73
2023-03-20T10:42:24.579Z,12.00
2023-03-20T10:44:57.641Z,10.18
2023-03-20T10:47:28.979Z,10.52
2023-03-20T10:50:00.461Z,10.65
2023-03-20T10:52:30.386Z,9.82
2023-03-20T10:55:02.554Z,9.65
2023-03-20T10:57:33.113Z,9.85
2023-03-20T11:00:02.131Z,9.55
2023-03-20T11:02:32.097Z,10.15
2023-03-20T11:05:01.967Z,10.18
2023-03-20T11:07:35.080Z,9.82
2023-03-20T11:10:12.640Z,10.02
2023-03-20T11:12:41.993Z,9.55
2023-03-20T11:15:18.322Z,10.18
2023-03-20T11:17:52.525Z,9.90
2023-03-20T11:20:21.232Z,9.50
2023-03-20T11:22:50.843Z,9.35
2023-03-20T11:25:31.040Z,9.38
2023-03-20T11:28:00.307Z,9.27
2023-03-20T11:30:29.343Z,9.45
2023-03-20T11:33:01.930Z,9.90
2023-03-20T11:35:33.655Z,9.75
2023-03-20T11:38:10.991Z,9.43
2023-03-20T11:40:41.855Z,9.82
2023-03-20T11:43:12.881Z,9.82
2023-03-20T11:45:42.654Z,9.63
2023-03-20T11:48:17.888Z,10.95
2023-03-20T11:50:48.627Z,9.45
2023-03-20T11:53:24.017Z,10.52
2023-03-20T11:56:15.159Z,9.48
2023-03-20T11:58:51.248Z,9.63
2023-03-20T12:01:20.011Z,9.50
2023-03-20T12:03:55.572Z,9.70
2023-03-20T12:06:27.273Z,10.52
2023-03-20T12:08:58.328Z,10.20
2023-03-20T12:11:38.062Z,9.88
2023-03-20T12:14:10.736Z,10.27
2023-03-20T12:16:40.181Z,9.30
2023-03-20T12:19:13.482Z,9.80
2023-03-20T12:21:48.417Z,9.70
2023-03-20T12:24:24.365Z,9.95
2023-03-20T12:26:57.288Z,9.60
2023-03-20T12:29:28.914Z,9.77
2023-03-20T12:32:00.446Z,9.70
2023-03-20T12:34:31.477Z,9.40
2023-03-20T12:37:01.056Z,9.98
2023-03-20T12:39:34.526Z,9.85
2023-03-20T12:42:11.361Z,9.80
2023-03-20T12:44:41.530Z,10.25
2023-03-20T12:47:17.147Z,10.80
2023-03-20T12:49:51.996Z,9.88
2023-03-20T12:52:25.725Z,9.73
2023-03-20T12:55:15.639Z,9.32
2023-03-20T12:57:50.145Z,9.52
2023-03-20T13:00:21.446Z,10.15
2023-03-20T13:02:54.191Z,9.45
2023-03-20T13:05:26.560Z,9.05
2023-03-20T13:08:02.955Z,8.85
2023-03-20T13:10:34.855Z,8.52
2023-03-20T13:13:11.615Z,6.30
2023-03-20T13:15:48.967Z,6.30
2023-03-20T13:18:20.491Z,4.00
2023-03-20T13:20:52.416Z,3.65
2023-03-20T13:23:27.366Z,3.28
2023-03-20T13:26:01.540Z,3.10
2023-03-20T13:28:35.659Z,2.08
2023-03-20T13:31:08.458Z,2.65
2023-03-20T13:33:44.049Z,2.15
2023-03-20T13:36:19.987Z,2.00
2023-03-20T13:38:50.533Z,1.60
2023-03-20T13:41:19.412Z,2.10
2023-03-20T13:43:54.250Z,1.73
2023-03-20T13:46:24.984Z,1.83
2023-03-20T13:48:55.534Z,1.75
2023-03-20T13:51:28.231Z,1.60
2023-03-20T13:54:05.836Z,1.70
2023-03-20T13:56:39.827Z,1.60
2023-03-20T13:59:32.467Z,1.58
2023-03-20T14:02:05.166Z,1.80
2023-03-20T14:04:34.530Z,1.63
2023-03-20T14:07:03.415Z,1.70
2023-03-20T14:09:33.706Z,1.70
2023-03-20T14:12:03.894Z,1.50
2023-03-20T14:14:34.485Z,1.40
2023-03-20T14:17:18.122Z,1.30
2023-03-20T14:19:47.782Z,1.48
2023-03-20T14:22:17.940Z,1.30
2023-03-20T14:24:52.352Z,1.52
2023-03-20T14:27:33.257Z,1.30
2023-03-20T14:30:28.237Z,0.80
2023-03-20T14:33:02.102Z,0.80
2023-03-20T14:35:31.162Z,0.80
2023-03-20T14:38:24.054Z,0.88
2023-03-20T14:40:56.220Z,0.60
2023-03-20T14:43:32.323Z,0.77
2023-03-20T14:46:04.342Z,0.70
2023-03-20T14:48:37.628Z,0.70
2023-03-20T14:51:11.330Z,0.50
2023-03-20T14:53:41.782Z,0.60
2023-03-20T14:56:11.705Z,0.70
2023-03-20T14:58:58.342Z,0.70
2023-03-20T15:01:28.505Z,0.50
2023-03-20T15:04:01.638Z,0.63
2023-03-20T15:06:31.483Z,0.50
2023-03-20T15:09:01.946Z,0.65
2023-03-20T15:11:31.315Z,0.70
2023-03-20T15:14:00.824Z,0.40
2023-03-20T15:16:31.078Z,0.68
2023-03-20T15:19:01.370Z,0.40
2023-03-20T15:21:31.748Z,0.40
2023-03-20T15:24:01.533Z,0.47
2023-03-20T15:26:31.108Z,0.60
2023-03-20T15:29:02.529Z,0.60
2023-03-20T15:31:32.860Z,0.70
2023-03-20T15:34:04.588Z,0.65
2023-03-20T15:36:35.564Z,0.40
2023-03-20T15:39:07.181Z,0.50
2023-03-20T15:41:38.175Z,0.47
2023-03-20T15:44:17.556Z,0.47
2023-03-20T15:47:01.219Z,0.40
2023-03-20T15:49:33.468Z,0.47
2023-03-20T15:52:04.253Z,0.50
2023-03-20T15:54:33.581Z,0.43
2023-03-20T15:57:05.398Z,0.45
2023-03-20T15:59:35.186Z,0.40
2023-03-20T16:02:04.114Z,0.75
2023-03-20T16:04:34.278Z,0.40
2023-03-20T16:07:03.324Z,0.50
2023-03-20T16:09:32.345Z,0.40
2023-03-20T16:12:01.726Z,0.45
2023-03-20T16:14:31.764Z,0.60
2023-03-20T16:17:01.644Z,0.50
2023-03-20T16:19:30.763Z,0.30
2023-03-20T16:22:02.816Z,0.40
2023-03-20T16:24:32.695Z,0.40
2023-03-20T16:27:01.628Z,0.40
2023-03-20T16:29:31.237Z,0.40
2023-03-20T16:32:01.635Z,0.50
2023-03-20T16:34:33.657Z,0.40
2023-03-20T16:37:04.398Z,0.52
2023-03-20T16:39:33.645Z,0.43
2023-03-20T16:42:12.831Z,0.50
2023-03-20T16:44:43.221Z,0.30
2023-03-20T16:47:20.225Z,0.50
2023-03-20T16:50:13.239Z,0.40
2023-03-20T16:52:46.522Z,0.47
2023-03-20T16:55:17.498Z,0.40
2023-03-20T16:57:48.774Z,0.50
2023-03-20T17:00:22.384Z,0.40
2023-03-20T17:02:54.941Z,0.40
2023-03-20T17:05:23.675Z,0.50
2023-03-20T17:07:58.104Z,0.70
2023-03-20T17:10:28.168Z,0.60
2023-03-20T17:12:57.231Z,0.52
2023-03-20T17:15:26.773Z,0.50
2023-03-20T17:17:55.806Z,0.50
2023-03-20T17:20:25.590Z,0.60
2023-03-20T17:22:56.039Z,0.47
2023-03-20T17:25:24.747Z,0.50
2023-03-20T17:27:53.516Z,0.50
2023-03-20T17:30:24.850Z,0.60
2023-03-20T17:32:53.731Z,0.50
2023-03-20T17:35:22.554Z,0.57
2023-03-20T17:37:51.578Z,0.40
2023-03-20T17:40:23.065Z,0.70
2023-03-20T17:42:51.914Z,0.70
2023-03-20T17:45:21.326Z,0.47
2023-03-20T17:47:51.818Z,0.70
2023-03-20T17:50:24.323Z,0.60
2023-03-20T17:52:53.734Z,0.70
2023-03-20T17:55:23.808Z,0.50
2023-03-20T17:57:52.599Z,0.45
2023-03-20T18:00:22.730Z,0.60
2023-03-20T18:02:51.741Z,0.68
2023-03-20T18:05:20.759Z,0.60
2023-03-20T18:07:49.470Z,0.50
2023-03-20T18:10:22.061Z,1.13
2023-03-20T18:12:52.227Z,0.70
2023-03-20T18:15:20.920Z,0.60
2023-03-20T18:17:49.542Z,0.70
2023-03-20T18:20:25.018Z,0.68
2023-03-20T18:22:53.764Z,0.68
2023-03-20T18:25:23.097Z,0.82
2023-03-20T18:27:53.376Z,0.52
2023-03-20T18:30:23.655Z,0.50
2023-03-20T18:32:52.456Z,0.60
2023-03-20T18:35:21.444Z,0.47
2023-03-20T18:37:50.377Z,0.50
2023-03-20T18:40:20.892Z,0.60
2023-03-20T18:42:49.753Z,0.70
2023-03-20T18:45:20.021Z,0.43
2023-03-20T18:47:48.827Z,0.60
2023-03-20T18:50:21.913Z,0.60
2023-03-20T18:52:50.713Z,0.65
2023-03-20T18:55:19.968Z,1.08
2023-03-20T18:57:48.700Z,0.85
2023-03-20T19:00:23.681Z,1.13
2023-03-20T19:02:53.138Z,0.50
2023-03-20T19:05:21.902Z,0.52
2023-03-20T19:07:51.090Z,0.47
2023-03-20T19:10:26.188Z,0.70
2023-03-20T19:12:55.272Z,0.60
2023-03-20T19:15:26.542Z,0.55
2023-03-20T19:17:55.442Z,0.50
2023-03-20T19:20:31.402Z,0.63
2023-03-20T19:23:00.363Z,0.65
2023-03-20T19:25:29.161Z,1.02
2023-03-20T19:27:58.030Z,0.50
2023-03-20T19:30:30.587Z,0.75
2023-03-20T19:32:59.864Z,0.50
2023-03-20T19:35:54.637Z,0.52
2023-03-20T19:38:18.449Z,0.77
2023-03-20T19:40:47.957Z,0.70
2023-03-20T19:43:16.674Z,0.60
2023-03-20T19:45:47.142Z,0.70
2023-03-20T19:48:16.864Z,0.73
2023-03-20T19:50:47.196Z,0.60
2023-03-20T19:53:16.986Z,0.75
2023-03-20T19:55:46.371Z,0.68
2023-03-20T19:58:15.937Z,0.85
2023-03-20T20:01:00.818Z,0.50
2023-03-20T20:03:31.312Z,0.68
2023-03-20T20:06:03.796Z,0.70
2023-03-20T20:08:46.570Z,0.60
2023-03-20T20:11:16.594Z,0.60
2023-03-20T20:14:07.199Z,0.57
2023-03-20T20:16:35.825Z,0.50
2023-03-20T20:19:06.730Z,0.70
2023-03-20T20:24:24.338Z,0.70
2023-03-20T20:26:59.959Z,0.70
2023-03-20T20:29:35.939Z,0.57
2023-03-20T20:32:04.772Z,0.60
2023-03-20T20:40:14.311Z,0.70
2023-03-20T20:42:43.614Z,0.73
2023-03-20T20:45:12.941Z,0.60
2023-03-20T20:47:42.878Z,0.60
2023-03-20T20:50:13.421Z,0.52
2023-03-20T20:52:42.786Z,0.77
2023-03-20T20:55:23.024Z,0.77
2023-03-20T20:57:52.455Z,0.80
2023-03-20T21:00:27.478Z,0.77
2023-03-20T21:03:00.328Z,1.10
2023-03-20T21:05:31.198Z,0.63
2023-03-20T21:08:00.800Z,0.60
2023-03-20T21:10:29.477Z,0.50
2023-03-20T21:12:59.915Z,0.40
2023-03-20T21:15:28.955Z,0.80
2023-03-20T21:18:01.434Z,0.65
2023-03-20T21:20:32.452Z,0.65
2023-03-20T21:23:01.529Z,0.65
2023-03-20T21:25:47.876Z,0.90
2023-03-20T21:28:17.919Z,0.70
2023-03-20T21:31:09.054Z,0.60
2023-03-20T21:33:36.568Z,0.60
2023-03-20T21:36:08.079Z,0.80
2023-03-20T21:41:25.660Z,0.70
2023-03-20T21:43:54.321Z,0.70
2023-03-20T21:47:01.580Z,0.50
2023-03-20T21:55:21.617Z,0.70
2023-03-20T22:03:35.217Z,0.75
2023-03-20T22:07:18.691Z,0.70
2023-03-20T22:15:29.373Z,0.75
2023-03-20T22:21:06.225Z,0.80
2023-03-20T22:29:32.677Z,0.60
2023-03-20T22:32:33.333Z,0.70
2023-03-20T22:35:15.293Z,0.70
2023-03-20T22:38:06.102Z,0.77
2023-03-20T22:43:57.076Z,0.85
2023-03-20T22:46:03.193Z,0.98
2023-03-20T22:48:37.415Z,0.93
2023-03-20T22:51:06.720Z,1.10
2023-03-20T22:53:35.968Z,1.15
2023-03-20T22:56:04.876Z,1.20
2023-03-20T22:58:35.325Z,1.10
2023-03-20T23:01:04.119Z,1.58
2023-03-20T23:03:41.554Z,1.30
2023-03-20T23:06:12.375Z,1.27
2023-03-20T23:08:49.304Z,1.67
2023-03-20T23:11:22.988Z,1.88
2023-03-20T23:13:53.451Z,1.83
2023-03-20T23:16:22.347Z,1.92
2023-03-20T23:18:51.322Z,2.08
2023-03-20T23:21:21.957Z,2.30
2023-03-20T23:23:54.276Z,2.15
2023-03-20T23:26:23.297Z,2.20
2023-03-20T23:28:53.873Z,2.30
2023-03-20T23:31:23.951Z,2.13
2023-03-20T23:33:54.196Z,2.17
2023-03-20T23:36:35.281Z,2.20
2023-03-20T23:39:05.317Z,2.75
2023-03-20T23:42:04.638Z,2.70
2023-03-20T23:44:24.215Z,2.83
2023-03-20T23:46:53.124Z,2.90
2023-03-20T23:49:21.898Z,2.50
2023-03-20T23:51:50.987Z,3.13
2023-03-20T23:54:19.703Z,3.05
2023-03-20T23:56:48.938Z,3.33
2023-03-20T23:59:22.004Z,3.20
